sensor_id;sensor_type;location;lat;lon;timestamp;P1;durP1;ratioP1;P2;durP2;ratioP2
75007;SDS011;63554;48.940;12.050;2023-04-01T00:01:02;1.38;;;1.08;;
75007;SDS011;63554;48.940;12.050;2023-04-01T00:05:07;2.60;;;0.50;;
75007;SDS011;63554;48.940;12.050;2023-04-01T00:09:13;0.68;;;0.50;;
75007;SDS011;63554;48.940;12.050;2023-04-01T00:13:15;0.98;;;0.40;;
75007;SDS011;63554;48.940;12.050;2023-04-01T00:17:18;1.77;;;0.60;;
75007;SDS011;63554;48.940;12.050;2023-04-01T00:21:21;2.20;;;0.47;;
75007;SDS011;63554;48.940;12.050;2023-04-01T00:25:25;0.75;;;0.75;;
75007;SDS011;63554;48.940;12.050;2023-04-01T00:29:28;1.33;;;0.52;;
75007;SDS011;63554;48.940;12.050;2023-04-01T00:33:31;0.55;;;0.47;;
75007;SDS011;63554;48.940;12.050;2023-04-01T00:37:35;0.60;;;0.60;;
75007;SDS011;63554;48.940;12.050;2023-04-01T00:41:40;3.08;;;0.30;;
75007;SDS011;63554;48.940;12.050;2023-04-01T00:45:43;1.55;;;0.30;;
75007;SDS011;63554;48.940;12.050;2023-04-01T00:49:48;1.58;;;0.50;;
75007;SDS011;63554;48.940;12.050;2023-04-01T00:53:53;0.80;;;0.80;;
75007;SDS011;63554;48.940;12.050;2023-04-01T00:58:00;1.20;;;0.57;;
75007;SDS011;63554;48.940;12.050;2023-04-01T01:02:07;0.60;;;0.60;;
75007;SDS011;63554;48.940;12.050;2023-04-01T01:06:24;2.30;;;0.68;;
75007;SDS011;63554;48.940;12.050;2023-04-01T01:10:40;3.38;;;0.60;;
75007;SDS011;63554;48.940;12.050;2023-04-01T01:14:51;0.60;;;0.30;;
75007;SDS011;63554;48.940;12.050;2023-04-01T01:18:58;0.30;;;0.30;;
75007;SDS011;63554;48.940;12.050;2023-04-01T01:28:01;0.82;;;0.30;;
75007;SDS011;63554;48.940;12.050;2023-04-01T01:32:20;0.47;;;0.47;;
75007;SDS011;63554;48.940;12.050;2023-04-01T01:36:43;0.40;;;0.40;;
75007;SDS011;63554;48.940;12.050;2023-04-01T01:40:50;0.35;;;0.35;;
75007;SDS011;63554;48.940;12.050;2023-04-01T01:44:55;0.20;;;0.20;;
75007;SDS011;63554;48.940;12.050;2023-04-01T01:49:01;0.32;;;0.30;;
75007;SDS011;63554;48.940;12.050;2023-04-01T01:53:09;0.40;;;0.40;;
75007;SDS011;63554;48.940;12.050;2023-04-01T01:57:14;0.30;;;0.30;;
75007;SDS011;63554;48.940;12.050;2023-04-01T02:01:20;0.90;;;0.55;;
75007;SDS011;63554;48.940;12.050;2023-04-01T02:05:27;0.20;;;0.20;;
75007;SDS011;63554;48.940;12.050;2023-04-01T02:09:34;1.38;;;0.50;;
75007;SDS011;63554;48.940;12.050;2023-04-01T02:13:38;2.95;;;0.40;;
75007;SDS011;63554;48.940;12.050;2023-04-01T02:17:45;3.30;;;0.50;;
75007;SDS011;63554;48.940;12.050;2023-04-01T02:21:50;0.40;;;0.40;;
75007;SDS011;63554;48.940;12.050;2023-04-01T02:25:58;0.30;;;0.30;;
75007;SDS011;63554;48.940;12.050;2023-04-01T02:30:02;0.93;;;0.57;;
75007;SDS011;63554;48.940;12.050;2023-04-01T02:34:05;0.43;;;0.43;;
75007;SDS011;63554;48.940;12.050;2023-04-01T02:38:08;1.05;;;0.40;;
75007;SDS011;63554;48.940;12.050;2023-04-01T02:42:12;0.47;;;0.47;;
75007;SDS011;63554;48.940;12.050;2023-04-01T02:46:16;2.55;;;0.70;;
75007;SDS011;63554;48.940;12.050;2023-04-01T02:50:19;0.43;;;0.43;;
75007;SDS011;63554;48.940;12.050;2023-04-01T02:54:21;1.45;;;0.43;;
75007;SDS011;63554;48.940;12.050;2023-04-01T02:58:25;0.45;;;0.40;;
75007;SDS011;63554;48.940;12.050;2023-04-01T03:02:28;0.52;;;0.50;;
75007;SDS011;63554;48.940;12.050;2023-04-01T03:06:31;0.52;;;0.52;;
75007;SDS011;63554;48.940;12.050;2023-04-01T03:10:34;0.30;;;0.30;;
75007;SDS011;63554;48.940;12.050;2023-04-01T03:14:38;1.02;;;0.70;;
75007;SDS011;63554;48.940;12.050;2023-04-01T03:18:40;0.40;;;0.40;;
75007;SDS011;63554;48.940;12.050;2023-04-01T03:22:43;0.65;;;0.55;;
75007;SDS011;63554;48.940;12.050;2023-04-01T03:26:47;0.65;;;0.50;;
75007;SDS011;63554;48.940;12.050;2023-04-01T03:30:51;0.38;;;0.30;;
75007;SDS011;63554;48.940;12.050;2023-04-01T03:34:53;1.17;;;0.70;;
75007;SDS011;63554;48.940;12.050;2023-04-01T03:38:56;0.43;;;0.43;;
75007;SDS011;63554;48.940;12.050;2023-04-01T03:42:59;1.05;;;0.40;;
75007;SDS011;63554;48.940;12.050;2023-04-01T03:47:03;0.40;;;0.40;;
75007;SDS011;63554;48.940;12.050;2023-04-01T03:51:06;1.23;;;0.52;;
75007;SDS011;63554;48.940;12.050;2023-04-01T03:55:09;2.92;;;0.65;;
75007;SDS011;63554;48.940;12.050;2023-04-01T03:59:12;0.35;;;0.35;;
75007;SDS011;63554;48.940;12.050;2023-04-01T04:03:16;0.45;;;0.40;;
75007;SDS011;63554;48.940;12.050;2023-04-01T04:07:19;0.77;;;0.40;;
75007;SDS011;63554;48.940;12.050;2023-04-01T04:11:21;0.30;;;0.30;;
75007;SDS011;63554;48.940;12.050;2023-04-01T04:15:25;0.25;;;0.25;;
75007;SDS011;63554;48.940;12.050;2023-04-01T04:19:32;0.45;;;0.45;;
75007;SDS011;63554;48.940;12.050;2023-04-01T04:23:36;0.70;;;0.65;;
75007;SDS011;63554;48.940;12.050;2023-04-01T04:27:38;0.45;;;0.20;;
75007;SDS011;63554;48.940;12.050;2023-04-01T04:31:41;0.93;;;0.73;;
75007;SDS011;63554;48.940;12.050;2023-04-01T04:35:46;0.70;;;0.70;;
75007;SDS011;63554;48.940;12.050;2023-04-01T04:39:48;0.20;;;0.20;;
75007;SDS011;63554;48.940;12.050;2023-04-01T04:43:52;1.90;;;0.93;;
75007;SDS011;63554;48.940;12.050;2023-04-01T04:47:56;0.30;;;0.30;;
75007;SDS011;63554;48.940;12.050;2023-04-01T04:52:00;0.30;;;0.30;;
75007;SDS011;63554;48.940;12.050;2023-04-01T04:56:02;0.40;;;0.40;;
75007;SDS011;63554;48.940;12.050;2023-04-01T05:00:06;2.30;;;0.47;;
75007;SDS011;63554;48.940;12.050;2023-04-01T05:04:11;2.10;;;0.75;;
75007;SDS011;63554;48.940;12.050;2023-04-01T05:08:15;0.28;;;0.28;;
75007;SDS011;63554;48.940;12.050;2023-04-01T05:12:17;0.82;;;0.50;;
75007;SDS011;63554;48.940;12.050;2023-04-01T05:16:20;0.52;;;0.50;;
75007;SDS011;63554;48.940;12.050;2023-04-01T05:20:23;0.70;;;0.70;;
75007;SDS011;63554;48.940;12.050;2023-04-01T05:24:27;0.45;;;0.40;;
75007;SDS011;63554;48.940;12.050;2023-04-01T05:28:30;0.45;;;0.20;;
75007;SDS011;63554;48.940;12.050;2023-04-01T05:32:32;0.52;;;0.52;;
75007;SDS011;63554;48.940;12.050;2023-04-01T05:36:35;0.47;;;0.47;;
75007;SDS011;63554;48.940;12.050;2023-04-01T05:40:40;0.68;;;0.40;;
75007;SDS011;63554;48.940;12.050;2023-04-01T05:44:42;0.40;;;0.40;;
75007;SDS011;63554;48.940;12.050;2023-04-01T05:48:45;0.40;;;0.40;;
75007;SDS011;63554;48.940;12.050;2023-04-01T05:52:48;0.50;;;0.40;;
75007;SDS011;63554;48.940;12.050;2023-04-01T05:56:52;0.47;;;0.30;;
75007;SDS011;63554;48.940;12.050;2023-04-01T06:00:59;0.55;;;0.55;;
75007;SDS011;63554;48.940;12.050;2023-04-01T06:05:14;0.40;;;0.40;;
75007;SDS011;63554;48.940;12.050;2023-04-01T06:09:21;0.30;;;0.30;;
75007;SDS011;63554;48.940;12.050;2023-04-01T06:13:37;0.20;;;0.20;;
75007;SDS011;63554;48.940;12.050;2023-04-01T06:17:52;0.50;;;0.50;;
75007;SDS011;63554;48.940;12.050;2023-04-01T06:22:17;0.47;;;0.22;;
75007;SDS011;63554;48.940;12.050;2023-04-01T06:26:43;0.50;;;0.50;;
75007;SDS011;63554;48.940;12.050;2023-04-01T06:30:54;0.40;;;0.40;;
75007;SDS011;63554;48.940;12.050;2023-04-01T06:39:47;0.43;;;0.43;;
75007;SDS011;63554;48.940;12.050;2023-04-01T06:44:06;0.50;;;0.50;;
75007;SDS011;63554;48.940;12.050;2023-04-01T06:48:22;0.25;;;0.25;;
75007;SDS011;63554;48.940;12.050;2023-04-01T06:52:41;0.43;;;0.43;;
75007;SDS011;63554;48.940;12.050;2023-04-01T06:56:51;0.32;;;0.32;;
75007;SDS011;63554;48.940;12.050;2023-04-01T07:01:00;0.30;;;0.30;;
75007;SDS011;63554;48.940;12.050;2023-04-01T07:05:07;0.63;;;0.30;;
75007;SDS011;63554;48.940;12.050;2023-04-01T07:09:14;0.40;;;0.40;;
75007;SDS011;63554;48.940;12.050;2023-04-01T07:13:21;0.30;;;0.30;;
75007;SDS011;63554;48.940;12.050;2023-04-01T07:17:29;0.50;;;0.50;;
75007;SDS011;63554;48.940;12.050;2023-04-01T07:21:39;0.38;;;0.38;;
75007;SDS011;63554;48.940;12.050;2023-04-01T07:25:45;0.32;;;0.20;;
75007;SDS011;63554;48.940;12.050;2023-04-01T07:29:52;0.88;;;0.70;;
75007;SDS011;63554;48.940;12.050;2023-04-01T07:34:01;1.48;;;0.38;;
75007;SDS011;63554;48.940;12.050;2023-04-01T07:38:16;0.35;;;0.30;;
75007;SDS011;63554;48.940;12.050;2023-04-01T07:42:30;1.48;;;0.30;;
75007;SDS011;63554;48.940;12.050;2023-04-01T07:46:47;0.45;;;0.40;;
75007;SDS011;63554;48.940;12.050;2023-04-01T07:50:59;0.20;;;0.20;;
75007;SDS011;63554;48.940;12.050;2023-04-01T07:55:07;1.33;;;0.20;;
75007;SDS011;63554;48.940;12.050;2023-04-01T07:59:16;0.65;;;0.65;;
75007;SDS011;63554;48.940;12.050;2023-04-01T08:03:29;0.52;;;0.45;;
75007;SDS011;63554;48.940;12.050;2023-04-01T08:07:40;0.82;;;0.57;;
75007;SDS011;63554;48.940;12.050;2023-04-01T08:11:55;0.80;;;0.50;;
75007;SDS011;63554;48.940;12.050;2023-04-01T08:16:06;0.30;;;0.30;;
75007;SDS011;63554;48.940;12.050;2023-04-01T08:20:23;0.32;;;0.32;;
75007;SDS011;63554;48.940;12.050;2023-04-01T08:24:33;0.30;;;0.30;;
75007;SDS011;63554;48.940;12.050;2023-04-01T08:28:50;0.35;;;0.35;;
75007;SDS011;63554;48.940;12.050;2023-04-01T08:32:58;0.93;;;0.25;;
75007;SDS011;63554;48.940;12.050;2023-04-01T08:37:08;0.32;;;0.32;;
75007;SDS011;63554;48.940;12.050;2023-04-01T08:45:56;0.15;;;0.10;;
75007;SDS011;63554;48.940;12.050;2023-04-01T08:54:45;1.98;;;0.50;;
75007;SDS011;63554;48.940;12.050;2023-04-01T08:59:06;1.27;;;0.30;;
75007;SDS011;63554;48.940;12.050;2023-04-01T09:03:37;0.52;;;0.30;;
75007;SDS011;63554;48.940;12.050;2023-04-01T09:07:56;0.75;;;0.40;;
75007;SDS011;63554;48.940;12.050;2023-04-01T09:12:15;0.43;;;0.30;;
75007;SDS011;63554;48.940;12.050;2023-04-01T09:16:42;0.63;;;0.35;;
75007;SDS011;63554;48.940;12.050;2023-04-01T09:25:38;0.47;;;0.32;;
75007;SDS011;63554;48.940;12.050;2023-04-01T09:29:53;0.30;;;0.30;;
75007;SDS011;63554;48.940;12.050;2023-04-01T09:34:22;0.45;;;0.40;;
75007;SDS011;63554;48.940;12.050;2023-04-01T09:38:39;1.70;;;0.30;;
75007;SDS011;63554;48.940;12.050;2023-04-01T09:42:59;0.93;;;0.43;;
75007;SDS011;63554;48.940;12.050;2023-04-01T09:47:24;0.75;;;0.30;;
75007;SDS011;63554;48.940;12.050;2023-04-01T09:51:37;0.30;;;0.30;;
75007;SDS011;63554;48.940;12.050;2023-04-01T10:05:36;0.22;;;0.22;;
75007;SDS011;63554;48.940;12.050;2023-04-01T10:14:57;2.63;;;0.28;;
75007;SDS011;63554;48.940;12.050;2023-04-01T10:24:18;0.25;;;0.22;;
75007;SDS011;63554;48.940;12.050;2023-04-01T10:52:48;0.30;;;0.30;;
75007;SDS011;63554;48.940;12.050;2023-04-01T10:57:10;0.63;;;0.30;;
75007;SDS011;63554;48.940;12.050;2023-04-01T11:20:47;0.28;;;0.28;;
75007;SDS011;63554;48.940;12.050;2023-04-01T11:25:25;0.50;;;0.10;;
75007;SDS011;63554;48.940;12.050;2023-04-01T11:29:50;0.55;;;0.22;;
75007;SDS011;63554;48.940;12.050;2023-04-01T11:34:02;0.30;;;0.30;;
75007;SDS011;63554;48.940;12.050;2023-04-01T11:38:26;0.55;;;0.30;;
75007;SDS011;63554;48.940;12.050;2023-04-01T11:42:44;0.28;;;0.28;;
75007;SDS011;63554;48.940;12.050;2023-04-01T11:46:59;0.25;;;0.22;;
75007;SDS011;63554;48.940;12.050;2023-04-01T11:56:07;0.45;;;0.40;;
75007;SDS011;63554;48.940;12.050;2023-04-01T12:00:27;0.30;;;0.30;;
75007;SDS011;63554;48.940;12.050;2023-04-01T12:09:41;0.57;;;0.57;;
75007;SDS011;63554;48.940;12.050;2023-04-01T12:13:54;0.30;;;0.30;;
75007;SDS011;63554;48.940;12.050;2023-04-01T12:18:03;0.25;;;0.25;;
75007;SDS011;63554;48.940;12.050;2023-04-01T12:26:43;0.75;;;0.60;;
75007;SDS011;63554;48.940;12.050;2023-04-01T12:31:02;0.28;;;0.28;;
75007;SDS011;63554;48.940;12.050;2023-04-01T12:35:17;0.20;;;0.20;;
75007;SDS011;63554;48.940;12.050;2023-04-01T12:39:33;0.57;;;0.55;;
75007;SDS011;63554;48.940;12.050;2023-04-01T12:44:04;0.28;;;0.28;;
75007;SDS011;63554;48.940;12.050;2023-04-01T12:48:24;0.38;;;0.38;;
75007;SDS011;63554;48.940;12.050;2023-04-01T12:52:58;0.30;;;0.30;;
75007;SDS011;63554;48.940;12.050;2023-04-01T12:57:17;0.35;;;0.35;;
75007;SDS011;63554;48.940;12.050;2023-04-01T13:06:20;0.40;;;0.40;;
75007;SDS011;63554;48.940;12.050;2023-04-01T13:10:45;1.25;;;0.45;;
75007;SDS011;63554;48.940;12.050;2023-04-01T13:15:13;0.32;;;0.32;;
75007;SDS011;63554;48.940;12.050;2023-04-01T13:19:25;0.60;;;0.60;;
75007;SDS011;63554;48.940;12.050;2023-04-01T13:23:36;0.30;;;0.30;;
75007;SDS011;63554;48.940;12.050;2023-04-01T13:27:49;0.32;;;0.32;;
75007;SDS011;63554;48.940;12.050;2023-04-01T13:32:01;0.63;;;0.38;;
75007;SDS011;63554;48.940;12.050;2023-04-01T13:36:18;0.90;;;0.68;;
75007;SDS011;63554;48.940;12.050;2023-04-01T13:40:34;2.20;;;0.40;;
75007;SDS011;63554;48.940;12.050;2023-04-01T13:44:56;0.60;;;0.60;;
75007;SDS011;63554;48.940;12.050;2023-04-01T13:49:11;0.52;;;0.50;;
75007;SDS011;63554;48.940;12.050;2023-04-01T13:53:45;0.30;;;0.30;;
75007;SDS011;63554;48.940;12.050;2023-04-01T13:58:07;0.52;;;0.52;;
75007;SDS011;63554;48.940;12.050;2023-04-01T14:02:31;0.30;;;0.30;;
75007;SDS011;63554;48.940;12.050;2023-04-01T14:06:53;0.40;;;0.40;;
75007;SDS011;63554;48.940;12.050;2023-04-01T14:11:10;0.65;;;0.40;;
75007;SDS011;63554;48.940;12.050;2023-04-01T14:15:33;2.20;;;0.68;;
75007;SDS011;63554;48.940;12.050;2023-04-01T14:24:09;0.52;;;0.52;;
75007;SDS011;63554;48.940;12.050;2023-04-01T14:28:28;0.57;;;0.57;;
75007;SDS011;63554;48.940;12.050;2023-04-01T14:32:42;0.50;;;0.50;;
75007;SDS011;63554;48.940;12.050;2023-04-01T14:41:25;0.88;;;0.88;;
75007;SDS011;63554;48.940;12.050;2023-04-01T14:45:54;0.65;;;0.65;;
75007;SDS011;63554;48.940;12.050;2023-04-01T14:50:11;0.40;;;0.40;;
75007;SDS011;63554;48.940;12.050;2023-04-01T14:54:17;0.63;;;0.63;;
75007;SDS011;63554;48.940;12.050;2023-04-01T14:58:25;1.20;;;0.70;;
75007;SDS011;63554;48.940;12.050;2023-04-01T15:02:44;1.58;;;0.90;;
75007;SDS011;63554;48.940;12.050;2023-04-01T15:07:02;0.68;;;0.68;;
75007;SDS011;63554;48.940;12.050;2023-04-01T15:11:21;0.40;;;0.40;;
75007;SDS011;63554;48.940;12.050;2023-04-01T15:15:33;1.52;;;1.15;;
75007;SDS011;63554;48.940;12.050;2023-04-01T15:19:43;0.50;;;0.40;;
75007;SDS011;63554;48.940;12.050;2023-04-01T15:24:03;1.15;;;1.02;;
75007;SDS011;63554;48.940;12.050;2023-04-01T15:28:14;1.73;;;0.73;;
75007;SDS011;63554;48.940;12.050;2023-04-01T15:32:28;1.17;;;0.70;;
75007;SDS011;63554;48.940;12.050;2023-04-01T15:36:42;0.57;;;0.57;;
75007;SDS011;63554;48.940;12.050;2023-04-01T15:40:56;0.73;;;0.50;;
75007;SDS011;63554;48.940;12.050;2023-04-01T15:45:11;1.00;;;0.90;;
75007;SDS011;63554;48.940;12.050;2023-04-01T15:49:24;0.70;;;0.70;;
75007;SDS011;63554;48.940;12.050;2023-04-01T15:53:44;0.85;;;0.70;;
75007;SDS011;63554;48.940;12.050;2023-04-01T15:58:04;0.70;;;0.70;;
75007;SDS011;63554;48.940;12.050;2023-04-01T16:02:28;0.80;;;0.63;;
75007;SDS011;63554;48.940;12.050;2023-04-01T16:06:39;0.73;;;0.60;;
75007;SDS011;63554;48.940;12.050;2023-04-01T16:10:58;0.60;;;0.60;;
75007;SDS011;63554;48.940;12.050;2023-04-01T16:15:15;1.08;;;0.90;;
75007;SDS011;63554;48.940;12.050;2023-04-01T16:19:30;0.55;;;0.55;;
75007;SDS011;63554;48.940;12.050;2023-04-01T16:27:46;0.65;;;0.65;;
75007;SDS011;63554;48.940;12.050;2023-04-01T16:32:02;0.45;;;0.43;;
75007;SDS011;63554;48.940;12.050;2023-04-01T16:36:24;0.30;;;0.30;;
75007;SDS011;63554;48.940;12.050;2023-04-01T16:40:37;1.27;;;0.75;;
75007;SDS011;63554;48.940;12.050;2023-04-01T16:44:47;0.70;;;0.63;;
75007;SDS011;63554;48.940;12.050;2023-04-01T16:49:00;0.50;;;0.50;;
75007;SDS011;63554;48.940;12.050;2023-04-01T16:53:17;0.60;;;0.40;;
75007;SDS011;63554;48.940;12.050;2023-04-01T16:57:23;0.88;;;0.85;;
75007;SDS011;63554;48.940;12.050;2023-04-01T17:01:31;0.75;;;0.65;;
75007;SDS011;63554;48.940;12.050;2023-04-01T17:05:49;0.47;;;0.47;;
75007;SDS011;63554;48.940;12.050;2023-04-01T17:10:13;1.08;;;0.70;;
75007;SDS011;63554;48.940;12.050;2023-04-01T17:14:31;1.42;;;1.23;;
75007;SDS011;63554;48.940;12.050;2023-04-01T17:18:45;1.15;;;0.88;;
75007;SDS011;63554;48.940;12.050;2023-04-01T17:23:00;0.60;;;0.60;;
75007;SDS011;63554;48.940;12.050;2023-04-01T17:27:13;0.88;;;0.63;;
75007;SDS011;63554;48.940;12.050;2023-04-01T17:31:34;0.75;;;0.60;;
75007;SDS011;63554;48.940;12.050;2023-04-01T17:35:48;0.82;;;0.75;;
75007;SDS011;63554;48.940;12.050;2023-04-01T17:40:00;0.52;;;0.50;;
75007;SDS011;63554;48.940;12.050;2023-04-01T17:44:21;0.50;;;0.50;;
75007;SDS011;63554;48.940;12.050;2023-04-01T17:48:38;2.95;;;0.82;;
75007;SDS011;63554;48.940;12.050;2023-04-01T17:52:55;0.70;;;0.68;;
75007;SDS011;63554;48.940;12.050;2023-04-01T17:57:14;1.17;;;0.93;;
75007;SDS011;63554;48.940;12.050;2023-04-01T18:01:39;0.90;;;0.75;;
75007;SDS011;63554;48.940;12.050;2023-04-01T18:05:56;0.90;;;0.90;;
75007;SDS011;63554;48.940;12.050;2023-04-01T18:10:10;0.70;;;0.50;;
75007;SDS011;63554;48.940;12.050;2023-04-01T18:14:37;1.50;;;0.85;;
75007;SDS011;63554;48.940;12.050;2023-04-01T18:18:53;1.23;;;1.10;;
75007;SDS011;63554;48.940;12.050;2023-04-01T18:27:15;2.38;;;1.65;;
75007;SDS011;63554;48.940;12.050;2023-04-01T18:31:23;1.17;;;0.95;;
75007;SDS011;63554;48.940;12.050;2023-04-01T18:35:29;0.88;;;0.80;;
75007;SDS011;63554;48.940;12.050;2023-04-01T18:39:47;0.70;;;0.70;;
75007;SDS011;63554;48.940;12.050;2023-04-01T18:43:54;2.25;;;1.38;;
75007;SDS011;63554;48.940;12.050;2023-04-01T18:48:14;1.40;;;1.30;;
75007;SDS011;63554;48.940;12.050;2023-04-01T18:52:36;1.67;;;1.13;;
75007;SDS011;63554;48.940;12.050;2023-04-01T18:56:43;1.23;;;1.10;;
75007;SDS011;63554;48.940;12.050;2023-04-01T19:00:48;1.33;;;1.23;;
75007;SDS011;63554;48.940;12.050;2023-04-01T19:05:02;2.20;;;1.10;;
75007;SDS011;63554;48.940;12.050;2023-04-01T19:09:24;1.95;;;1.13;;
75007;SDS011;63554;48.940;12.050;2023-04-01T19:13:29;2.75;;;1.52;;
75007;SDS011;63554;48.940;12.050;2023-04-01T19:17:44;1.20;;;1.10;;
75007;SDS011;63554;48.940;12.050;2023-04-01T19:21:58;0.70;;;0.52;;
75007;SDS011;63554;48.940;12.050;2023-04-01T19:26:17;1.45;;;1.23;;
75007;SDS011;63554;48.940;12.050;2023-04-01T19:30:34;0.82;;;0.60;;
75007;SDS011;63554;48.940;12.050;2023-04-01T19:34:47;1.33;;;0.80;;
75007;SDS011;63554;48.940;12.050;2023-04-01T19:39:00;1.05;;;0.88;;
75007;SDS011;63554;48.940;12.050;2023-04-01T19:43:21;0.82;;;0.82;;
75007;SDS011;63554;48.940;12.050;2023-04-01T19:47:44;1.27;;;0.85;;
75007;SDS011;63554;48.940;12.050;2023-04-01T19:51:56;1.33;;;1.23;;
75007;SDS011;63554;48.940;12.050;2023-04-01T19:56:07;1.15;;;0.60;;
75007;SDS011;63554;48.940;12.050;2023-04-01T20:00:20;1.10;;;1.02;;
75007;SDS011;63554;48.940;12.050;2023-04-01T20:04:28;2.05;;;1.30;;
75007;SDS011;63554;48.940;12.050;2023-04-01T20:08:36;1.77;;;0.70;;
75007;SDS011;63554;48.940;12.050;2023-04-01T20:12:46;0.80;;;0.63;;
75007;SDS011;63554;48.940;12.050;2023-04-01T20:17:01;1.42;;;1.17;;
75007;SDS011;63554;48.940;12.050;2023-04-01T20:21:17;1.02;;;0.82;;
75007;SDS011;63554;48.940;12.050;2023-04-01T20:25:30;1.02;;;0.98;;
75007;SDS011;63554;48.940;12.050;2023-04-01T20:29:40;1.50;;;1.40;;
75007;SDS011;63554;48.940;12.050;2023-04-01T20:38:32;0.73;;;0.60;;
75007;SDS011;63554;48.940;12.050;2023-04-01T20:42:53;1.77;;;0.75;;
75007;SDS011;63554;48.940;12.050;2023-04-01T20:47:20;1.35;;;1.15;;
75007;SDS011;63554;48.940;12.050;2023-04-01T20:51:32;0.98;;;0.85;;
75007;SDS011;63554;48.940;12.050;2023-04-01T20:55:52;2.35;;;1.25;;
75007;SDS011;63554;48.940;12.050;2023-04-01T21:00:18;0.80;;;0.57;;
75007;SDS011;63554;48.940;12.050;2023-04-01T21:04:40;0.90;;;0.90;;
75007;SDS011;63554;48.940;12.050;2023-04-01T21:09:00;1.30;;;1.00;;
75007;SDS011;63554;48.940;12.050;2023-04-01T21:13:16;2.05;;;1.50;;
75007;SDS011;63554;48.940;12.050;2023-04-01T21:17:33;1.20;;;1.05;;
75007;SDS011;63554;48.940;12.050;2023-04-01T21:22:00;0.70;;;0.57;;
75007;SDS011;63554;48.940;12.050;2023-04-01T21:26:19;1.20;;;0.88;;
75007;SDS011;63554;48.940;12.050;2023-04-01T21:30:35;1.30;;;0.95;;
75007;SDS011;63554;48.940;12.050;2023-04-01T21:34:50;1.88;;;1.10;;
75007;SDS011;63554;48.940;12.050;2023-04-01T21:39:01;0.98;;;0.70;;
75007;SDS011;63554;48.940;12.050;2023-04-01T21:43:20;1.08;;;0.73;;
75007;SDS011;63554;48.940;12.050;2023-04-01T21:57:12;1.00;;;0.90;;
75007;SDS011;63554;48.940;12.050;2023-04-01T22:01:52;0.85;;;0.75;;
75007;SDS011;63554;48.940;12.050;2023-04-01T22:06:08;0.80;;;0.80;;
75007;SDS011;63554;48.940;12.050;2023-04-01T22:10:21;1.30;;;1.23;;
75007;SDS011;63554;48.940;12.050;2023-04-01T22:14:35;1.50;;;1.40;;
75007;SDS011;63554;48.940;12.050;2023-04-01T22:18:44;1.58;;;1.42;;
75007;SDS011;63554;48.940;12.050;2023-04-01T22:22:59;3.42;;;1.00;;
75007;SDS011;63554;48.940;12.050;2023-04-01T22:27:12;1.45;;;1.00;;
75007;SDS011;63554;48.940;12.050;2023-04-01T22:31:22;1.88;;;1.25;;
75007;SDS011;63554;48.940;12.050;2023-04-01T22:35:32;1.25;;;1.00;;
75007;SDS011;63554;48.940;12.050;2023-04-01T22:39:51;1.80;;;1.15;;
75007;SDS011;63554;48.940;12.050;2023-04-01T22:44:02;1.05;;;0.95;;
75007;SDS011;63554;48.940;12.050;2023-04-01T22:48:07;2.95;;;1.25;;
75007;SDS011;63554;48.940;12.050;2023-04-01T22:52:15;1.00;;;0.50;;
75007;SDS011;63554;48.940;12.050;2023-04-01T22:56:26;1.05;;;0.95;;
75007;SDS011;63554;48.940;12.050;2023-04-01T23:00:33;1.38;;;0.80;;
75007;SDS011;63554;48.940;12.050;2023-04-01T23:04:43;1.02;;;0.70;;
75007;SDS011;63554;48.940;12.050;2023-04-01T23:08:56;1.88;;;1.00;;
75007;SDS011;63554;48.940;12.050;2023-04-01T23:13:14;0.80;;;0.80;;
75007;SDS011;63554;48.940;12.050;2023-04-01T23:17:30;1.13;;;1.02;;
75007;SDS011;63554;48.940;12.050;2023-04-01T23:21:40;0.50;;;0.50;;
75007;SDS011;63554;48.940;12.050;2023-04-01T23:25:49;0.40;;;0.40;;
75007;SDS011;63554;48.940;12.050;2023-04-01T23:29:59;0.60;;;0.60;;
75007;SDS011;63554;48.940;12.050;2023-04-01T23:34:03;1.13;;;0.73;;
75007;SDS011;63554;48.940;12.050;2023-04-01T23:38:24;1.70;;;0.77;;
75007;SDS011;63554;48.940;12.050;2023-04-01T23:42:28;1.00;;;0.90;;
75007;SDS011;63554;48.940;12.050;2023-04-01T23:46:33;0.40;;;0.40;;
75007;SDS011;63554;48.940;12.050;2023-04-01T23:50:37;0.98;;;0.88;;
75007;SDS011;63554;48.940;12.050;2023-04-01T23:54:43;0.90;;;0.77;;
75007;SDS011;63554;48.940;12.050;2023-04-01T23:58:50;0.70;;;0.70;;
